| time (UTC) | temp C | wind direction | speed KPH | gust KPH | rain 1hr cm | rain 24hr cm | rain mn cm | humidity % | barometer mb |
| 20260506215517 | 27 | 226 | 4.8 | 11.3 | 0.00 | 0.00 | 0.00 | 31 | 1011.9 |
| 20260506215002 | 27 | 227 | 8.0 | 16.1 | 0.00 | 0.00 | 0.00 | 32 | 1011.9 |
| 20260506214002 | 27 | 206 | 6.4 | 14.5 | 0.00 | 0.00 | 0.00 | 33 | 1011.9 |
| 20260506213506 | 27 | 258 | 4.8 | 11.3 | 0.00 | 0.00 | 0.00 | 33 | 1011.9 |
| 20260506213001 | 26 | 261 | 4.8 | 9.7 | 0.00 | 0.00 | 0.00 | 32 | 1011.9 |
| 20260506212501 | 27 | 254 | 4.8 | 12.9 | 0.00 | 0.00 | 0.00 | 33 | 1011.9 |
| 20260506212001 | 27 | 254 | 6.4 | 14.5 | 0.00 | 0.00 | 0.00 | 33 | 1012.0 |
| 20260506211505 | 27 | 169 | 8.0 | 17.7 | 0.00 | 0.00 | 0.00 | 33 | 1011.9 |
| 20260506211001 | 27 | 221 | 4.8 | 11.3 | 0.00 | 0.00 | 0.00 | 33 | 1012.2 |
| 20260506210501 | 27 | 221 | 4.8 | 8.0 | 0.00 | 0.00 | 0.00 | 34 | 1012.2 |
| 20260506210012 | 27 | 211 | 4.8 | 14.5 | 0.00 | 0.00 | 0.00 | 35 | 1012.2 |
| 20260506205502 | 27 | 190 | 4.8 | 12.9 | 0.00 | 0.00 | 0.00 | 36 | 1012.5 |
| 20260506205011 | 26 | 269 | 3.2 | 6.4 | 0.00 | 0.00 | 0.00 | 36 | 1012.5 |
| 20260506204506 | 26 | 210 | 4.8 | 12.9 | 0.00 | 0.00 | 0.00 | 37 | 1012.5 |
| 20260506204001 | 26 | 187 | 4.8 | 8.0 | 0.00 | 0.00 | 0.00 | 38 | 1012.5 |
| 20260506203501 | 26 | 166 | 4.8 | 14.5 | 0.00 | 0.00 | 0.00 | 37 | 1012.7 |
| 20260506203006 | 26 | 209 | 4.8 | 16.1 | 0.00 | 0.00 | 0.00 | 37 | 1012.9 |
| 20260506202501 | 26 | 230 | 4.8 | 8.0 | 0.00 | 0.00 | 0.00 | 37 | 1012.9 |
| 20260506202021 | 26 | 201 | 6.4 | 12.9 | 0.00 | 0.00 | 0.00 | 38 | 1012.9 |
| 20260506201006 | 25 | 285 | 6.4 | 14.5 | 0.00 | 0.00 | 0.00 | 38 | 1013.2 |
| 20260506200501 | 25 | 249 | 4.8 | 16.1 | 0.00 | 0.00 | 0.00 | 37 | 1013.2 |
| 20260506200012 | 26 | 243 | 4.8 | 9.7 | 0.00 | 0.00 | 0.00 | 37 | 1013.2 |
| 20260506195507 | 26 | 253 | 3.2 | 6.4 | 0.00 | 0.00 | 0.00 | 37 | 1013.2 |
| 20260506195002 | 25 | 225 | 3.2 | 6.4 | 0.00 | 0.00 | 0.00 | 38 | 1013.1 |
| 20260506194502 | 25 | 181 | 6.4 | 12.9 | 0.00 | 0.00 | 0.00 | 38 | 1013.2 |
| 20260506194002 | 25 | 191 | 4.8 | 9.7 | 0.00 | 0.00 | 0.00 | 38 | 1013.2 |
| 20260506193511 | 25 | 180 | 6.4 | 12.9 | 0.00 | 0.00 | 0.00 | 39 | 1013.2 |
| 20260506193012 | 25 | 160 | 6.4 | 12.9 | 0.00 | 0.00 | 0.00 | 38 | 1013.3 |
| 20260506192507 | 25 | 176 | 4.8 | 11.3 | 0.00 | 0.00 | 0.00 | 38 | 1013.5 |
| 20260506192010 | 25 | 141 | 4.8 | 12.9 | 0.00 | 0.00 | 0.00 | 38 | 1013.5 |
| 20260506191517 | 25 | 223 | 3.2 | 6.4 | 0.00 | 0.00 | 0.00 | 39 | 1013.5 |
| 20260506191001 | 25 | 262 | 3.2 | 8.0 | 0.00 | 0.00 | 0.00 | 40 | 1013.5 |
| 20260506190502 | 25 | 214 | 4.8 | 8.0 | 0.00 | 0.00 | 0.00 | 39 | 1013.5 |
| 20260506190007 | 25 | 266 | 3.2 | 6.4 | 0.00 | 0.00 | 0.00 | 38 | 1013.7 |
| 20260506185502 | 24 | 191 | 3.2 | 8.0 | 0.00 | 0.00 | 0.00 | 39 | 1013.9 |
| 20260506185001 | 24 | 240 | 4.8 | 9.7 | 0.00 | 0.00 | 0.00 | 39 | 1013.9 |
| 20260506184521 | 23 | 313 | 1.6 | 4.8 | 0.00 | 0.00 | 0.00 | 39 | 1013.9 |
| 20260506184007 | 24 | 245 | 4.8 | 8.0 | 0.00 | 0.00 | 0.00 | 39 | 1013.9 |
| 20260506183502 | 24 | 158 | 3.2 | 6.4 | 0.00 | 0.00 | 0.00 | 39 | 1013.9 |
| 20260506182511 | 23 | 226 | 3.2 | 6.4 | 0.00 | 0.00 | 0.00 | 40 | 1013.9 |
| 20260506182012 | 23 | 124 | 4.8 | 9.7 | 0.00 | 0.00 | 0.00 | 40 | 1013.9 |
| 20260506181507 | 23 | 73 | 1.6 | 6.4 | 0.00 | 0.00 | 0.00 | 41 | 1013.9 |
| 20260506181002 | 22 | 215 | 4.8 | 11.3 | 0.00 | 0.00 | 0.00 | 41 | 1013.9 |
| 20260506180501 | 23 | 125 | 4.8 | 12.9 | 0.00 | 0.00 | 0.00 | 40 | 1013.9 |
| 20260506180006 | 23 | 168 | 3.2 | 8.0 | 0.00 | 0.00 | 0.00 | 41 | 1013.9 |
| 20260506175006 | 22 | 208 | 4.8 | 11.3 | 0.00 | 0.00 | 0.00 | 42 | 1014.0 |
| 20260506174501 | 21 | 189 | 3.2 | 8.0 | 0.00 | 0.00 | 0.00 | 41 | 1014.2 |
| 20260506174001 | 22 | 125 | 4.8 | 11.3 | 0.00 | 0.00 | 0.00 | 41 | 1014.2 |
| 20260506173507 | 21 | 111 | 1.6 | 6.4 | 0.00 | 0.00 | 0.00 | 40 | 1014.2 |
| 20260506173010 | 21 | 85 | 3.2 | 4.8 | 0.00 | 0.00 | 0.00 | 39 | 1014.2 |
| 20260506172527 | 20 | 22 | 3.2 | 4.8 | 0.00 | 0.00 | 0.00 | 39 | 1014.3 |
| 20260506172022 | 20 | 98 | 3.2 | 6.4 | 0.00 | 0.00 | 0.00 | 39 | 1014.5 |
| 20260506171504 | 19 | 323 | 3.2 | 6.4 | 0.00 | 0.00 | 0.00 | 40 | 1014.6 |
| 20260506171001 | 19 | 128 | 3.2 | 8.0 | 0.00 | 0.00 | 0.00 | 39 | 1014.6 |
| 20260506170501 | 19 | 8 | 3.2 | 6.4 | 0.00 | 0.00 | 0.00 | 41 | 1014.6 |
| 20260506170006 | 18 | 311 | 1.6 | 4.8 | 0.00 | 0.00 | 0.00 | 41 | 1014.7 |
| 20260506165515 | 18 | 336 | 3.2 | 8.0 | 0.00 | 0.00 | 0.00 | 41 | 1014.9 |
| 20260506165012 | 18 | 31 | 3.2 | 6.4 | 0.00 | 0.00 | 0.00 | 41 | 1014.9 |
| 20260506164505 | 18 | 58 | 3.2 | 6.4 | 0.00 | 0.00 | 0.00 | 42 | 1014.9 |
| 20260506163506 | 17 | 96 | 1.6 | 3.2 | 0.00 | 0.00 | 0.00 | 43 | 1014.9 |
| 20260506163011 | 17 | 57 | 3.2 | 6.4 | 0.00 | 0.00 | 0.00 | 44 | 1015.2 |
| 20260506162018 | 16 | 43 | 1.6 | 6.4 | 0.00 | 0.00 | 0.00 | 47 | 1015.2 |
| 20260506161534 | 16 | 25 | 4.8 | 8.0 | 0.00 | 0.00 | 0.00 | 47 | 1015.2 |
| 20260506161007 | 15 | 38 | 1.6 | 4.8 | 0.00 | 0.00 | 0.00 | 47 | 1015.2 |
| 20260506160501 | 15 | 37 | 3.2 | 6.4 | 0.00 | 0.00 | 0.00 | 47 | 1015.2 |
| 20260506160003 | 15 | 14 | 3.2 | 6.4 | 0.00 | 0.00 | 0.00 | 47 | 1015.2 |
| 20260506155512 | 15 | 88 | 1.6 | 4.8 | 0.00 | 0.00 | 0.00 | 49 | 1015.2 |
| 20260506155011 | 15 | 359 | 1.6 | 4.8 | 0.00 | 0.00 | 0.00 | 49 | 1015.2 |
| 20260506154502 | 15 | 358 | 1.6 | 3.2 | 0.00 | 0.00 | 0.00 | 50 | 1015.2 |
| 20260506154001 | 15 | 17 | 1.6 | 3.2 | 0.00 | 0.00 | 0.00 | 49 | 1015.2 |
| 20260506153501 | 15 | 51 | 3.2 | 4.8 | 0.00 | 0.00 | 0.00 | 49 | 1015.2 |
| 20260506153006 | 14 | 24 | 1.6 | 3.2 | 0.00 | 0.00 | 0.00 | 51 | 1015.2 |
| 20260506152501 | 14 | 48 | 3.2 | 4.8 | 0.00 | 0.00 | 0.00 | 52 | 1015.2 |
| 20260506152001 | 14 | 42 | 3.2 | 4.8 | 0.00 | 0.00 | 0.00 | 56 | 1015.2 |
| 20260506151500 | 14 | 72 | 1.6 | 3.2 | 0.00 | 0.00 | 0.00 | 61 | 1015.2 |
| 20260506150506 | 13 | 66 | 1.6 | 3.2 | 0.00 | 0.00 | 0.00 | 64 | 1015.3 |
| 20260506150001 | 12 | 83 | 1.6 | 3.2 | 0.00 | 0.00 | 0.00 | 67 | 1015.3 |
| 20260506145501 | 12 | 80 | 1.6 | 3.2 | 0.00 | 0.00 | 0.00 | 69 | 1015.3 |
| 20260506145000 | 11 | 51 | 1.6 | 3.2 | 0.00 | 0.00 | 0.00 | 71 | 1015.2 |
| 20260506144501 | 11 | 47 | 1.6 | 3.2 | 0.00 | 0.00 | 0.00 | 73 | 1015.2 |
| 20260506144001 | 11 | 49 | 1.6 | 3.2 | 0.00 | 0.00 | 0.00 | 74 | 1015.2 |
| 20260506143501 | 10 | 38 | 1.6 | 3.2 | 0.00 | 0.00 | 0.00 | 76 | 1015.2 |
| 20260506143001 | 10 | 29 | 1.6 | 3.2 | 0.00 | 0.00 | 0.00 | 78 | 1015.2 |
| 20260506142533 | 9 | 37 | 0.0 | 1.6 | 0.00 | 0.00 | 0.00 | 78 | 1015.2 |
| 20260506142001 | 9 | 32 | 1.6 | 3.2 | 0.00 | 0.00 | 0.00 | 79 | 1015.2 |
| 20260506141501 | 8 | 332 | 0.0 | 3.2 | 0.00 | 0.00 | 0.00 | 80 | 1015.2 |
| 20260506141005 | 8 | 30 | 1.6 | 3.2 | 0.00 | 0.00 | 0.00 | 80 | 1015.2 |
| 20260506140511 | 8 | 83 | 0.0 | 3.2 | 0.00 | 0.00 | 0.00 | 81 | 1015.2 |
| 20260506140002 | 8 | 75 | 1.6 | 3.2 | 0.00 | 0.00 | 0.00 | 83 | 1015.2 |
| 20260506135505 | 8 | 82 | 0.0 | 1.6 | 0.00 | 0.00 | 0.00 | 84 | 1015.2 |
| 20260506135002 | 7 | 114 | 1.6 | 3.2 | 0.00 | 0.00 | 0.00 | 85 | 1015.2 |
| 20260506134506 | 7 | 134 | 1.6 | 3.2 | 0.00 | 0.00 | 0.00 | 86 | 1015.2 |
| 20260506134001 | 7 | 32 | 0.0 | 1.6 | 0.00 | 0.00 | 0.00 | 87 | 1015.2 |
| 20260506133501 | 7 | 23 | 0.0 | 1.6 | 0.00 | 0.00 | 0.00 | 87 | 1015.2 |
| 20260506133012 | 7 | 28 | 0.0 | 0.0 | 0.00 | 0.00 | 0.00 | 87 | 1015.2 |
| 20260506132502 | 7 | 27 | 0.0 | 1.6 | 0.00 | 0.00 | 0.00 | 87 | 1014.9 |
| 20260506132000 | 6 | 28 | 0.0 | 1.6 | 0.00 | 0.00 | 0.00 | 87 | 1014.9 |
| 20260506131506 | 6 | 102 | 0.0 | 0.0 | 0.00 | 0.00 | 0.00 | 87 | 1014.9 |
| 20260506131001 | 6 | 102 | 0.0 | 0.0 | 0.00 | 0.00 | 0.00 | 87 | 1014.9 |
| 20260506130506 | 6 | 101 | 0.0 | 0.0 | 0.00 | 0.00 | 0.00 | 87 | 1014.9 |
| 20260506130001 | 6 | 101 | 0.0 | 0.0 | 0.00 | 0.00 | 0.00 | 87 | 1014.9 |
| 20260506125517 | 6 | 101 | 0.0 | 0.0 | 0.00 | 0.00 | 0.00 | 86 | 1014.9 |
| 20260506125011 | 6 | 99 | 0.0 | 0.0 | 0.00 | 0.00 | 0.00 | 86 | 1014.6 |
| 20260506124506 | 6 | 95 | 0.0 | 0.0 | 0.00 | 0.00 | 0.00 | 86 | 1014.6 |
| 20260506124001 | 6 | 95 | 0.0 | 0.0 | 0.00 | 0.00 | 0.00 | 86 | 1014.6 |
| 20260506123501 | 6 | 95 | 0.0 | 0.0 | 0.00 | 0.00 | 0.00 | 86 | 1014.6 |
| 20260506123001 | 6 | 95 | 0.0 | 0.0 | 0.00 | 0.00 | 0.00 | 86 | 1014.6 |
| 20260506122501 | 6 | 95 | 0.0 | 0.0 | 0.00 | 0.00 | 0.00 | 86 | 1014.6 |
| 20260506122001 | 6 | 95 | 0.0 | 0.0 | 0.00 | 0.00 | 0.00 | 85 | 1014.6 |
| 20260506121501 | 6 | 70 | 0.0 | 0.0 | 0.00 | 0.00 | 0.00 | 85 | 1014.6 |
| 20260506121000 | 6 | 45 | 0.0 | 0.0 | 0.00 | 0.00 | 0.00 | 85 | 1014.6 |
| 20260506120501 | 7 | 45 | 0.0 | 0.0 | 0.00 | 0.00 | 0.00 | 85 | 1014.5 |
| 20260506120000 | 7 | 45 | 0.0 | 0.0 | 0.00 | 0.00 | 0.00 | 85 | 1014.6 |
| 20260506115517 | 7 | 45 | 0.0 | 0.0 | 0.00 | 0.00 | 0.00 | 84 | 1014.5 |
| 20260506115001 | 7 | 45 | 0.0 | 0.0 | 0.00 | 0.00 | 0.00 | 84 | 1014.4 |
| 20260506114501 | 7 | 45 | 0.0 | 0.0 | 0.00 | 0.00 | 0.00 | 83 | 1014.2 |
| 20260506114001 | 7 | 45 | 0.0 | 0.0 | 0.00 | 0.00 | 0.00 | 83 | 1014.2 |
| 20260506113500 | 7 | 45 | 0.0 | 0.0 | 0.00 | 0.00 | 0.00 | 83 | 1014.2 |
| 20260506113006 | 7 | 45 | 0.0 | 0.0 | 0.00 | 0.00 | 0.00 | 83 | 1014.2 |
| 20260506112506 | 7 | 45 | 0.0 | 0.0 | 0.00 | 0.00 | 0.00 | 83 | 1014.2 |
| 20260506112007 | 7 | 45 | 0.0 | 0.0 | 0.00 | 0.00 | 0.00 | 82 | 1014.2 |
| 20260506111506 | 7 | 45 | 0.0 | 0.0 | 0.00 | 0.00 | 0.00 | 82 | 1014.2 |
| 20260506111001 | 7 | 45 | 0.0 | 0.0 | 0.00 | 0.00 | 0.00 | 82 | 1014.2 |
| 20260506110501 | 7 | 46 | 0.0 | 0.0 | 0.00 | 0.00 | 0.00 | 81 | 1014.2 |
| 20260506110006 | 7 | 45 | 0.0 | 0.0 | 0.00 | 0.00 | 0.00 | 81 | 1014.2 |
| 20260506105506 | 8 | 45 | 0.0 | 0.0 | 0.00 | 0.00 | 0.00 | 80 | 1014.2 |
| 20260506105002 | 8 | 46 | 0.0 | 0.0 | 0.00 | 0.00 | 0.00 | 80 | 1014.2 |
| 20260506104501 | 8 | 46 | 0.0 | 0.0 | 0.00 | 0.00 | 0.00 | 79 | 1014.2 |
| 20260506104001 | 8 | 45 | 0.0 | 0.0 | 0.00 | 0.00 | 0.00 | 79 | 1014.2 |
| 20260506103506 | 8 | 45 | 0.0 | 0.0 | 0.00 | 0.00 | 0.00 | 79 | 1014.2 |
| 20260506103001 | 8 | 45 | 0.0 | 0.0 | 0.00 | 0.00 | 0.00 | 79 | 1014.2 |
| 20260506102501 | 8 | 37 | 0.0 | 0.0 | 0.00 | 0.00 | 0.00 | 79 | 1014.2 |
| 20260506102001 | 8 | 36 | 0.0 | 0.0 | 0.00 | 0.00 | 0.00 | 78 | 1014.2 |
| 20260506101507 | 8 | 37 | 0.0 | 0.0 | 0.00 | 0.00 | 0.00 | 78 | 1014.2 |
| 20260506101002 | 8 | 36 | 0.0 | 0.0 | 0.00 | 0.00 | 0.00 | 78 | 1014.2 |
| 20260506100500 | 8 | 32 | 0.0 | 1.6 | 0.00 | 0.00 | 0.00 | 77 | 1014.2 |
| 20260506100001 | 8 | 35 | 0.0 | 0.0 | 0.00 | 0.00 | 0.00 | 76 | 1014.2 |
| 20260506095500 | 8 | 35 | 0.0 | 0.0 | 0.00 | 0.00 | 0.00 | 76 | 1014.2 |
| 20260506095002 | 9 | 36 | 0.0 | 1.6 | 0.00 | 0.00 | 0.00 | 75 | 1014.2 |
| 20260506094501 | 9 | 36 | 0.0 | 0.0 | 0.00 | 0.00 | 0.00 | 75 | 1014.2 |
| 20260506094007 | 9 | 36 | 0.0 | 1.6 | 0.00 | 0.00 | 0.00 | 74 | 1014.2 |
| 20260506093506 | 9 | 36 | 0.0 | 1.6 | 0.00 | 0.00 | 0.00 | 74 | 1014.2 |
| 20260506092500 | 9 | 36 | 0.0 | 1.6 | 0.00 | 0.00 | 0.00 | 74 | 1014.2 |
| 20260506092006 | 9 | 36 | 0.0 | 0.0 | 0.00 | 0.00 | 0.00 | 72 | 1014.2 |
| 20260506091502 | 10 | 37 | 0.0 | 0.0 | 0.00 | 0.00 | 0.00 | 73 | 1014.2 |
| 20260506091006 | 10 | 37 | 0.0 | 0.0 | 0.00 | 0.00 | 0.00 | 72 | 1014.0 |
| 20260506090502 | 10 | 36 | 0.0 | 0.0 | 0.00 | 0.00 | 0.00 | 72 | 1014.0 |
| 20260506090001 | 10 | 35 | 0.0 | 1.6 | 0.00 | 0.00 | 0.00 | 72 | 1014.1 |
| 20260506085511 | 10 | 37 | 0.0 | 1.6 | 0.00 | 0.00 | 0.00 | 72 | 1014.2 |
| 20260506085006 | 10 | 37 | 0.0 | 1.6 | 0.00 | 0.00 | 0.00 | 72 | 1014.2 |
| 20260506084512 | 10 | 37 | 0.0 | 0.0 | 0.00 | 0.00 | 0.00 | 71 | 1014.2 |
| 20260506084000 | 10 | 37 | 0.0 | 0.0 | 0.00 | 0.00 | 0.00 | 70 | 1014.1 |
| 20260506083501 | 10 | 36 | 0.0 | 1.6 | 0.00 | 0.00 | 0.00 | 70 | 1014.0 |
| 20260506083001 | 10 | 33 | 0.0 | 1.6 | 0.00 | 0.00 | 0.00 | 70 | 1014.2 |
| 20260506082507 | 10 | 29 | 0.0 | 1.6 | 0.00 | 0.00 | 0.00 | 70 | 1014.0 |
| 20260506081511 | 11 | 29 | 0.0 | 0.0 | 0.00 | 0.00 | 0.00 | 68 | 1013.9 |
| 20260506081018 | 11 | 29 | 0.0 | 1.6 | 0.00 | 0.00 | 0.00 | 67 | 1013.9 |
| 20260506080501 | 11 | 29 | 0.0 | 0.0 | 0.00 | 0.00 | 0.00 | 66 | 1014.0 |
| 20260506073505 | 11 | 72 | 0.0 | 1.6 | 0.00 | 0.00 | 0.00 | 64 | 1013.9 |
| 20260506073010 | 11 | 73 | 0.0 | 0.0 | 0.00 | 0.00 | 0.00 | 63 | 1013.9 |
| 20260506072501 | 11 | 73 | 0.0 | 0.0 | 0.00 | 0.00 | 0.00 | 64 | 1013.9 |
| 20260506072001 | 12 | 74 | 0.0 | 1.6 | 0.00 | 0.00 | 0.00 | 64 | 1013.9 |
| 20260506071505 | 12 | 73 | 0.0 | 1.6 | 0.00 | 0.00 | 0.00 | 64 | 1013.7 |
| 20260506071006 | 12 | 73 | 0.0 | 0.0 | 0.00 | 0.00 | 0.00 | 63 | 1013.6 |
| 20260506070502 | 12 | 73 | 0.0 | 0.0 | 0.00 | 0.00 | 0.00 | 63 | 1013.5 |
| 20260506062511 | 13 | 67 | 0.0 | 0.0 | 0.00 | 0.00 | 0.00 | 56 | 1013.5 |
| 20260506062006 | 13 | 66 | 0.0 | 1.6 | 0.00 | 0.00 | 0.00 | 56 | 1013.3 |
| 20260506061507 | 13 | 67 | 0.0 | 0.0 | 0.00 | 0.00 | 0.00 | 56 | 1013.3 |
| 20260506061007 | 13 | 67 | 0.0 | 0.0 | 0.00 | 0.00 | 0.00 | 55 | 1013.2 |
| 20260506060506 | 13 | 67 | 0.0 | 0.0 | 0.00 | 0.00 | 0.00 | 56 | 1013.2 |
| 20260506051018 | 15 | 201 | 0.0 | 1.6 | 0.00 | 0.00 | 0.00 | 52 | 1012.9 |
| 20260506050512 | 15 | 203 | 0.0 | 3.2 | 0.00 | 0.00 | 0.00 | 51 | 1012.9 |
| 20260506045001 | 16 | 31 | 0.0 | 1.6 | 0.00 | 0.00 | 0.00 | 50 | 1012.9 |
| 20260506044501 | 16 | 30 | 0.0 | 1.6 | 0.00 | 0.00 | 0.00 | 49 | 1012.6 |
| 20260506044001 | 16 | 30 | 0.0 | 0.0 | 0.00 | 0.00 | 0.00 | 48 | 1012.5 |
| 20260506043505 | 16 | 29 | 0.0 | 1.6 | 0.00 | 0.00 | 0.00 | 47 | 1012.5 |
| 20260506043000 | 17 | 20 | 1.6 | 3.2 | 0.00 | 0.00 | 0.00 | 45 | 1012.5 |
| 20260506042502 | 17 | 240 | 0.0 | 1.6 | 0.00 | 0.00 | 0.00 | 46 | 1012.5 |
| 20260506042003 | 17 | 163 | 1.6 | 1.6 | 0.00 | 0.00 | 0.00 | 44 | 1012.4 |
| 20260506041002 | 17 | 63 | 0.0 | 1.6 | 0.00 | 0.00 | 0.00 | 40 | 1012.2 |
| 20260506040518 | 18 | 69 | 0.0 | 0.0 | 0.00 | 0.00 | 0.00 | 41 | 1012.2 |
| 20260506040001 | 18 | 69 | 0.0 | 0.0 | 0.00 | 0.00 | 0.00 | 40 | 1012.2 |
| 20260506035502 | 18 | 69 | 0.0 | 0.0 | 0.00 | 0.00 | 0.00 | 40 | 1012.1 |
| 20260506035007 | 18 | 78 | 1.6 | 1.6 | 0.00 | 0.00 | 0.00 | 38 | 1011.9 |
| 20260506034507 | 18 | 190 | 0.0 | 0.0 | 0.00 | 0.00 | 0.00 | 38 | 1011.9 |
| 20260506034001 | 19 | 190 | 0.0 | 0.0 | 0.00 | 0.00 | 0.00 | 37 | 1011.9 |
| 20260506033501 | 19 | 191 | 0.0 | 0.0 | 0.00 | 0.00 | 0.00 | 37 | 1011.9 |
| 20260506033001 | 20 | 190 | 0.0 | 1.6 | 0.00 | 0.00 | 0.00 | 36 | 1011.9 |
| 20260506032501 | 20 | 62 | 0.0 | 1.6 | 0.00 | 0.00 | 0.00 | 34 | 1011.7 |
| 20260506032001 | 21 | 41 | 1.6 | 3.2 | 0.00 | 0.00 | 0.00 | 33 | 1011.5 |
| 20260506031507 | 21 | 46 | 0.0 | 1.6 | 0.00 | 0.00 | 0.00 | 30 | 1011.5 |
| 20260506031006 | 21 | 47 | 0.0 | 0.0 | 0.00 | 0.00 | 0.00 | 30 | 1011.5 |
| 20260506030500 | 21 | 60 | 0.0 | 3.2 | 0.00 | 0.00 | 0.00 | 30 | 1011.5 |
| 20260506030007 | 22 | 118 | 0.0 | 3.2 | 0.00 | 0.00 | 0.00 | 29 | 1011.5 |
| 20260506025506 | 22 | 131 | 1.6 | 3.2 | 0.00 | 0.00 | 0.00 | 28 | 1011.5 |
| 20260506025001 | 22 | 118 | 1.6 | 6.4 | 0.00 | 0.00 | 0.00 | 28 | 1011.5 |
| 20260506024501 | 22 | 115 | 1.6 | 4.8 | 0.00 | 0.00 | 0.00 | 28 | 1011.5 |
| 20260506024001 | 22 | 112 | 3.2 | 4.8 | 0.00 | 0.00 | 0.00 | 27 | 1011.5 |
| 20260506023518 | 23 | 115 | 3.2 | 6.4 | 0.00 | 0.00 | 0.00 | 27 | 1011.5 |
| 20260506023002 | 23 | 126 | 1.6 | 3.2 | 0.00 | 0.00 | 0.00 | 27 | 1011.4 |
| 20260506022506 | 23 | 132 | 1.6 | 3.2 | 0.00 | 0.00 | 0.00 | 28 | 1011.3 |
| 20260506022001 | 23 | 68 | 1.6 | 3.2 | 0.00 | 0.00 | 0.00 | 27 | 1011.2 |
| 20260506021511 | 24 | 125 | 0.0 | 0.0 | 0.00 | 0.00 | 0.00 | 27 | 1011.2 |
| 20260506021002 | 24 | 132 | 0.0 | 3.2 | 0.00 | 0.00 | 0.00 | 27 | 1011.2 |
| 20260506020506 | 24 | 62 | 0.0 | 1.6 | 0.00 | 0.00 | 0.00 | 27 | 1011.2 |
| 20260506020001 | 23 | 341 | 1.6 | 3.2 | 0.00 | 0.00 | 0.00 | 27 | 1011.2 |
| 20260506015501 | 23 | 350 | 3.2 | 3.2 | 0.00 | 0.00 | 0.00 | 26 | 1011.2 |
| 20260506015002 | 24 | 3 | 1.6 | 3.2 | 0.00 | 0.00 | 0.00 | 26 | 1011.4 |
| 20260506014501 | 24 | 1 | 1.6 | 3.2 | 0.00 | 0.00 | 0.00 | 26 | 1011.5 |
| 20260506014002 | 24 | 80 | 0.0 | 3.2 | 0.00 | 0.00 | 0.00 | 27 | 1011.5 |
| 20260506013506 | 24 | 249 | 1.6 | 3.2 | 0.00 | 0.00 | 0.00 | 26 | 1011.5 |
| 20260506013000 | 23 | 252 | 3.2 | 4.8 | 0.00 | 0.00 | 0.00 | 26 | 1011.5 |
| 20260506012506 | 23 | 307 | 3.2 | 4.8 | 0.00 | 0.00 | 0.00 | 26 | 1011.5 |
| 20260506012006 | 24 | 319 | 3.2 | 6.4 | 0.00 | 0.00 | 0.00 | 25 | 1011.5 |
| 20260506011501 | 24 | 135 | 1.6 | 3.2 | 0.00 | 0.00 | 0.00 | 26 | 1011.5 |
| 20260506011001 | 24 | 71 | 1.6 | 3.2 | 0.00 | 0.00 | 0.00 | 25 | 1011.5 |
| 20260506010500 | 24 | 48 | 3.2 | 6.4 | 0.00 | 0.00 | 0.00 | 25 | 1011.5 |
| 20260506010001 | 24 | 38 | 3.2 | 6.4 | 0.00 | 0.00 | 0.00 | 25 | 1011.5 |
| 20260506005501 | 25 | 338 | 3.2 | 6.4 | 0.00 | 0.00 | 0.00 | 25 | 1011.5 |
| 20260506005006 | 25 | 2 | 3.2 | 6.4 | 0.00 | 0.00 | 0.00 | 25 | 1011.5 |
| 20260506004505 | 25 | 336 | 1.6 | 6.4 | 0.00 | 0.00 | 0.00 | 25 | 1011.5 |
| 20260506004006 | 25 | 360 | 3.2 | 6.4 | 0.00 | 0.00 | 0.00 | 24 | 1011.5 |
| 20260506003501 | 25 | 103 | 1.6 | 4.8 | 0.00 | 0.00 | 0.00 | 24 | 1011.7 |
| 20260506003000 | 25 | 269 | 3.2 | 6.4 | 0.00 | 0.00 | 0.00 | 24 | 1011.9 |
| 20260506002501 | 25 | 298 | 3.2 | 6.4 | 0.00 | 0.00 | 0.00 | 24 | 1011.9 |
| 20260506002012 | 25 | 278 | 4.8 | 8.0 | 0.00 | 0.00 | 0.00 | 24 | 1011.9 |
| 20260506001512 | 25 | 263 | 4.8 | 8.0 | 0.00 | 0.00 | 0.00 | 24 | 1011.9 |
| 20260506000001 | 26 | 141 | 3.2 | 6.4 | 0.00 | 0.00 | 0.00 | 23 | 1012.0 |
| 20260505235501 | 26 | 23 | 1.6 | 4.8 | 0.00 | 0.00 | 0.00 | 24 | 1012.2 |
| 20260505235000 | 25 | 308 | 4.8 | 11.3 | 0.00 | 0.00 | 0.00 | 24 | 1012.2 |
| 20260505234501 | 25 | 13 | 3.2 | 9.7 | 0.00 | 0.00 | 0.00 | 24 | 1012.2 |
| 20260505234006 | 25 | 5 | 4.8 | 9.7 | 0.00 | 0.00 | 0.00 | 24 | 1012.2 |
| 20260505233513 | 25 | 36 | 4.8 | 8.0 | 0.00 | 0.00 | 0.00 | 24 | 1012.2 |
| 20260505232502 | 25 | 40 | 4.8 | 11.3 | 0.00 | 0.00 | 0.00 | 24 | 1012.2 |
| 20260505232001 | 25 | 37 | 4.8 | 11.3 | 0.00 | 0.00 | 0.00 | 24 | 1012.2 |
| 20260505231502 | 25 | 328 | 6.4 | 12.9 | 0.00 | 0.00 | 0.00 | 24 | 1012.2 |
| 20260505231001 | 25 | 336 | 4.8 | 8.0 | 0.00 | 0.00 | 0.00 | 23 | 1012.5 |
| 20260505230502 | 25 | 326 | 4.8 | 8.0 | 0.00 | 0.00 | 0.00 | 23 | 1012.5 |
| 20260505230001 | 25 | 46 | 1.6 | 4.8 | 0.00 | 0.00 | 0.00 | 23 | 1012.5 |
| 20260505225502 | 25 | 2 | 4.8 | 9.7 | 0.00 | 0.00 | 0.00 | 23 | 1012.5 |
| 20260505225007 | 26 | 70 | 4.8 | 8.0 | 0.00 | 0.00 | 0.00 | 23 | 1012.5 |
| 20260505224508 | 26 | 90 | 4.8 | 8.0 | 0.00 | 0.00 | 0.00 | 22 | 1012.5 |
| 20260505224003 | 26 | 97 | 3.2 | 6.4 | 0.00 | 0.00 | 0.00 | 23 | 1012.5 |
| 20260505223501 | 26 | 57 | 3.2 | 6.4 | 0.00 | 0.00 | 0.00 | 23 | 1012.7 |
| 20260505223001 | 26 | 139 | 1.6 | 3.2 | 0.00 | 0.00 | 0.00 | 24 | 1012.9 |
| 20260505222502 | 25 | 116 | 3.2 | 6.4 | 0.00 | 0.00 | 0.00 | 24 | 1012.9 |
| 20260505222002 | 24 | 64 | 3.2 | 6.4 | 0.00 | 0.00 | 0.00 | 24 | 1012.9 |
| 20260505221502 | 25 | 25 | 8.0 | 16.1 | 0.00 | 0.00 | 0.00 | 24 | 1012.9 |
| 20260505221004 | 26 | 68 | 6.4 | 12.9 | 0.00 | 0.00 | 0.00 | 24 | 1012.9 |
| 20260505220505 | 25 | 37 | 3.2 | 6.4 | 0.00 | 0.00 | 0.00 | 24 | 1012.9 |